Time;durP1;ratioP1;P1;durP2;ratioP2;P2;SDS_P1;SDS_P2;PMS_P1;PMS_P2;Temp;Humidity;BMP_temperature;BMP_pressure;BME280_temperature;BME280_humidity;BME280_pressure;Samples;Min_cycle;Max_cycle;Signal;HPM_P1;HPM_P2
2022/02/17 00:00:52;;;;;;;13.20;2.70;;;11.30;85.10;;;;;;6154745;22;92811;-70
2022/02/17 00:03:20;;;;;;;10.50;2.67;;;11.30;84.60;;;;;;6155509;22;92970;-70
2022/02/17 00:05:47;;;;;;;16.48;2.85;;;11.30;83.90;;;;;;6155400;22;92764;-70
2022/02/17 00:08:19;;;;;;;15.65;3.53;;;11.30;83.60;;;;;;6153524;22;95291;-70
2022/02/17 00:10:47;;;;;;;12.77;2.38;;;11.30;83.50;;;;;;6154968;22;95150;-70
2022/02/17 00:13:14;;;;;;;15.15;3.00;;;11.40;83.20;;;;;;6154590;22;99844;-70
2022/02/17 00:15:41;;;;;;;11.38;2.70;;;11.40;83.00;;;;;;6128435;22;92425;-69
2022/02/17 00:18:21;;;;;;;11.10;2.80;;;11.40;82.60;;;;;;6154977;22;93187;-69
2022/02/17 00:20:50;;;;;;;14.95;3.20;;;11.50;82.20;;;;;;6128787;22;93105;-70
2022/02/17 00:23:17;;;;;;;17.20;3.35;;;11.40;81.90;;;;;;6155627;22;92747;-70
2022/02/17 00:25:44;;;;;;;17.20;3.28;;;11.50;81.90;;;;;;6128763;22;91828;-70
2022/02/17 00:28:11;;;;;;;12.15;3.13;;;11.50;81.60;;;;;;6154514;22;93284;-70
2022/02/17 00:30:38;;;;;;;13.63;2.72;;;11.50;80.70;;;;;;6128070;22;96020;-70
2022/02/17 00:33:06;;;;;;;10.60;2.53;;;11.50;79.30;;;;;;6102252;22;94944;-70
2022/02/17 00:35:33;;;;;;;13.43;2.63;;;11.60;78.10;;;;;;6155220;22;93082;-70
2022/02/17 00:38:01;;;;;;;15.77;2.95;;;11.60;77.80;;;;;;6155517;22;93181;-70
2022/02/17 00:40:28;;;;;;;10.98;2.35;;;11.70;77.10;;;;;;6129040;22;103688;-70
2022/02/17 00:42:55;;;;;;;14.55;2.90;;;11.70;76.20;;;;;;6156136;22;92378;-69
2022/02/17 00:45:23;;;;;;;11.27;2.53;;;11.70;76.10;;;;;;6129383;22;92440;-70
2022/02/17 00:47:50;;;;;;;10.68;2.40;;;11.80;76.40;;;;;;6156280;22;93247;-70
2022/02/17 00:50:18;;;;;;;15.10;2.88;;;11.80;76.20;;;;;;6104927;22;95235;-70
2022/02/17 00:52:45;;;;;;;11.95;2.88;;;11.80;75.60;;;;;;6129521;22;92411;-70
2022/02/17 00:55:12;;;;;;;9.65;2.30;;;11.80;75.50;;;;;;6104830;22;92978;-70
2022/02/17 00:57:39;;;;;;;11.38;2.90;;;11.70;74.70;;;;;;6103100;22;97784;-70
2022/02/17 01:00:07;;;;;;;19.83;3.55;;;11.70;75.10;;;;;;6104013;22;98202;-70
2022/02/17 01:02:37;;;;;;;13.45;3.50;;;11.70;74.10;;;;;;6129683;22;92497;-70
2022/02/17 01:05:06;;;;;;;15.98;2.90;;;11.60;74.40;;;;;;6104708;22;92463;-70
2022/02/17 01:07:33;;;;;;;15.88;3.20;;;11.60;73.70;;;;;;6104065;22;103948;-70
2022/02/17 01:10:00;;;;;;;16.67;3.30;;;11.60;73.90;;;;;;6128865;22;95660;-70
2022/02/17 01:12:28;;;;;;;15.25;3.25;;;11.60;73.90;;;;;;6104847;22;92768;-70
2022/02/17 01:14:55;;;;;;;13.32;3.05;;;11.60;73.70;;;;;;6156653;22;91670;-70
2022/02/17 01:17:22;;;;;;;22.60;4.18;;;11.60;73.80;;;;;;6128931;22;95427;-70
2022/02/17 01:19:49;;;;;;;15.75;3.80;;;11.60;73.30;;;;;;6129388;22;95906;-70
2022/02/17 01:22:17;;;;;;;22.05;3.83;;;11.70;73.90;;;;;;6103066;22;94744;-70
2022/02/17 01:24:46;;;;;;;16.80;4.15;;;11.70;74.50;;;;;;6129201;22;92551;-69
2022/02/17 01:27:13;;;;;;;12.77;3.47;;;11.70;73.70;;;;;;6104189;22;96323;-70
2022/02/17 01:29:40;;;;;;;16.50;3.45;;;11.70;73.10;;;;;;6104366;22;95618;-70
2022/02/17 01:32:08;;;;;;;12.27;2.85;;;11.70;72.60;;;;;;6128817;22;92729;-70
2022/02/17 01:34:39;;;;;;;16.23;3.42;;;11.70;73.00;;;;;;6129057;22;92478;-70
2022/02/17 01:37:06;;;;;;;11.70;2.78;;;11.70;71.80;;;;;;6128692;22;95145;-70
2022/02/17 01:39:36;;;;;;;9.13;2.75;;;11.60;71.50;;;;;;6128915;22;94288;-70
2022/02/17 01:42:08;;;;;;;14.65;2.65;;;11.60;71.30;;;;;;6129569;22;92942;-70
2022/02/17 01:44:39;;;;;;;14.95;2.97;;;11.50;71.40;;;;;;6129202;22;92417;-70
2022/02/17 01:47:13;;;;;;;20.77;3.60;;;11.50;70.30;;;;;;6127122;22;97807;-70
2022/02/17 01:49:42;;;;;;;14.57;3.53;;;11.40;70.70;;;;;;6128523;22;97614;-70
2022/02/17 01:52:12;;;;;;;14.80;3.08;;;11.30;71.10;;;;;;6129065;22;92472;-70
2022/02/17 01:54:41;;;;;;;12.75;3.05;;;11.30;71.70;;;;;;6129316;22;92433;-70
2022/02/17 01:57:22;;;;;;;12.32;3.20;;;11.30;72.40;;;;;;6128565;22;95893;-69
2022/02/17 01:59:55;;;;;;;15.38;3.97;;;11.20;72.30;;;;;;6105104;22;95310;-70
2022/02/17 02:02:42;;;;;;;10.63;3.30;;;11.20;73.20;;;;;;6133885;22;92501;-70
2022/02/17 02:05:10;;;;;;;15.68;3.13;;;11.10;74.00;;;;;;6105061;22;91689;-70
2022/02/17 02:07:38;;;;;;;14.65;3.75;;;11.10;74.50;;;;;;6155725;22;92904;-70
2022/02/17 02:10:08;;;;;;;19.58;4.53;;;11.10;74.20;;;;;;6104921;22;95477;-70
2022/02/17 02:12:35;;;;;;;15.73;3.53;;;11.10;73.70;;;;;;6103036;22;94778;-70
2022/02/17 02:15:14;;;;;;;15.45;3.17;;;11.10;73.40;;;;;;6128778;22;92450;-70
2022/02/17 02:17:44;;;;;;;14.75;3.33;;;11.00;73.60;;;;;;6128717;22;95077;-70
2022/02/17 02:20:18;;;;;;;13.45;3.15;;;10.90;73.80;;;;;;6129137;22;92899;-70
2022/02/17 02:22:52;;;;;;;13.15;2.67;;;10.90;73.30;;;;;;6129028;22;92377;-70
2022/02/17 02:25:24;;;;;;;14.60;3.00;;;10.80;72.50;;;;;;6128854;22;92392;-70
2022/02/17 02:27:54;;;;;;;15.30;4.50;;;10.80;73.50;;;;;;6129028;22;95831;-70
2022/02/17 02:30:21;;;;;;;13.30;2.97;;;10.80;73.80;;;;;;6129098;22;95487;-70
2022/02/17 02:32:48;;;;;;;15.40;3.10;;;10.80;73.70;;;;;;6129117;22;92428;-70
2022/02/17 02:35:16;;;;;;;17.35;4.00;;;10.70;74.80;;;;;;6103974;22;92486;-70
2022/02/17 02:37:43;;;;;;;14.63;2.97;;;10.70;74.30;;;;;;6078376;22;97962;-70
2022/02/17 02:40:21;;;;;;;12.95;2.88;;;10.80;74.60;;;;;;6128340;22;97404;-70
2022/02/17 02:42:50;;;;;;;19.42;3.78;;;10.80;75.20;;;;;;6129081;22;92786;-69
2022/02/17 02:45:18;;;;;;;12.63;2.60;;;10.70;74.40;;;;;;6129191;22;92400;-70
2022/02/17 02:47:45;;;;;;;12.70;3.72;;;10.60;74.30;;;;;;6104252;22;96114;-70
2022/02/17 02:50:11;;;;;;;19.42;4.60;;;10.60;74.00;;;;;;6155175;22;92954;-70
2022/02/17 02:52:39;;;;;;;20.77;3.80;;;10.60;74.30;;;;;;6104701;22;92962;-69
2022/02/17 02:55:06;;;;;;;23.20;4.60;;;10.60;75.20;;;;;;6129507;22;91706;-70
2022/02/17 02:57:33;;;;;;;18.48;3.90;;;10.60;74.40;;;;;;6128374;22;96038;-69
2022/02/17 03:00:02;;;;;;;22.63;4.10;;;10.50;75.20;;;;;;6103494;22;95272;-70
2022/02/17 03:02:30;;;;;;;11.80;3.17;;;10.60;75.50;;;;;;6127360;22;94890;-69
2022/02/17 03:04:57;;;;;;;15.73;3.38;;;10.50;74.00;;;;;;6128941;22;92555;-70
2022/02/17 03:07:24;;;;;;;16.65;3.53;;;10.50;73.90;;;;;;6128725;22;93243;-70
2022/02/17 03:09:51;;;;;;;14.43;3.30;;;10.50;73.60;;;;;;6128681;22;95664;-70
2022/02/17 03:12:18;;;;;;;14.77;3.33;;;10.40;74.60;;;;;;6104051;22;92514;-70
2022/02/17 03:14:48;;;;;;;16.27;3.30;;;10.30;75.10;;;;;;6128638;22;92465;-70
2022/02/17 03:17:18;;;;;;;12.40;3.40;;;10.30;74.00;;;;;;6104391;22;95470;-70
2022/02/17 03:19:46;;;;;;;18.85;3.38;;;10.30;74.50;;;;;;6128594;22;95497;-70
2022/02/17 03:22:16;;;;;;;17.90;4.13;;;10.30;74.00;;;;;;6128123;22;92380;-70
2022/02/17 03:24:43;;;;;;;16.77;3.97;;;10.30;73.60;;;;;;6104303;22;93051;-70
2022/02/17 03:27:10;;;;;;;16.95;3.72;;;10.40;74.40;;;;;;6102007;22;96764;-70
2022/02/17 03:29:37;;;;;;;16.85;3.92;;;10.40;73.90;;;;;;6128221;22;97693;-70
2022/02/17 03:32:07;;;;;;;18.95;3.83;;;10.40;74.00;;;;;;6128698;22;92505;-70
2022/02/17 03:34:35;;;;;;;13.65;3.45;;;10.40;74.50;;;;;;6128302;22;92628;-70
2022/02/17 03:37:03;;;;;;;19.13;4.22;;;10.40;74.90;;;;;;6128684;22;95457;-70
2022/02/17 03:39:30;;;;;;;23.58;5.00;;;10.40;75.90;;;;;;6103758;22;95321;-70
2022/02/17 03:42:07;;;;;;;19.55;3.88;;;10.40;75.30;;;;;;6106517;22;92827;-70
2022/02/17 03:44:36;;;;;;;22.50;4.05;;;10.40;75.60;;;;;;6128655;22;91730;-70
2022/02/17 03:47:12;;;;;;;15.93;5.03;;;10.50;75.50;;;;;;6128729;22;95328;-70
2022/02/17 03:49:48;;;;;;;10.48;2.58;;;10.50;74.70;;;;;;6128562;22;95308;-70
2022/02/17 03:52:15;;;;;;;19.80;3.35;;;10.50;75.00;;;;;;6102672;22;94796;-70
2022/02/17 03:54:47;;;;;;;17.08;3.30;;;10.50;74.30;;;;;;6128784;22;92468;-70
2022/02/17 03:57:15;;;;;;;18.90;4.30;;;10.50;74.10;;;;;;6128268;22;95263;-70
2022/02/17 03:59:46;;;;;;;19.58;4.45;;;10.50;74.00;;;;;;6128711;22;95473;-70
2022/02/17 04:02:14;;;;;;;17.10;3.22;;;10.50;73.40;;;;;;6103695;22;92407;-70
2022/02/17 04:04:41;;;;;;;15.52;3.70;;;10.40;73.90;;;;;;6103892;22;92801;-70
2022/02/17 04:07:08;;;;;;;22.38;4.43;;;10.50;74.00;;;;;;6128670;22;93102;-70
2022/02/17 04:09:36;;;;;;;13.45;2.92;;;10.50;73.80;;;;;;6128265;22;95379;-70
2022/02/17 04:12:04;;;;;;;18.63;4.05;;;10.40;73.50;;;;;;6128541;22;92421;-70
2022/02/17 04:14:34;;;;;;;19.52;3.95;;;10.40;73.90;;;;;;6128406;22;92996;-70
2022/02/17 04:17:02;;;;;;;18.42;3.85;;;10.40;73.80;;;;;;6102339;22;97980;-70
2022/02/17 04:19:50;;;;;;;14.63;3.42;;;10.40;73.80;;;;;;6108290;22;95094;-70
2022/02/17 04:22:37;;;;;;;17.50;3.83;;;10.50;73.80;;;;;;6128412;22;92416;-70
2022/02/17 04:25:15;;;;;;;19.75;3.95;;;10.40;74.20;;;;;;6128495;22;92450;-70
2022/02/17 04:27:43;;;;;;;13.93;3.67;;;10.40;74.00;;;;;;6127982;22;95345;-70
2022/02/17 04:30:11;;;;;;;21.60;3.38;;;10.40;74.00;;;;;;6127865;22;95195;-70
2022/02/17 04:32:38;;;;;;;17.88;3.88;;;10.30;73.80;;;;;;6127991;22;92546;-70
2022/02/17 04:35:06;;;;;;;11.68;3.38;;;10.30;73.90;;;;;;6128491;22;91738;-70
2022/02/17 04:37:33;;;;;;;19.45;3.75;;;10.30;73.50;;;;;;6127536;22;95759;-70
2022/02/17 04:40:00;;;;;;;17.88;4.05;;;10.40;73.90;;;;;;6103652;22;95535;-70
2022/02/17 04:42:33;;;;;;;17.30;3.55;;;10.30;73.50;;;;;;6126741;22;94750;-70
2022/02/17 04:45:03;;;;;;;14.63;3.35;;;10.30;74.10;;;;;;6103798;22;92613;-70
2022/02/17 04:47:29;;;;;;;17.70;3.17;;;10.20;73.70;;;;;;6127570;22;95636;-70
2022/02/17 04:49:58;;;;;;;16.60;3.47;;;10.30;73.50;;;;;;6127688;22;95486;-70
2022/02/17 04:52:25;;;;;;;15.48;3.55;;;10.30;73.80;;;;;;6128261;22;92315;-70
2022/02/17 04:54:52;;;;;;;15.63;2.95;;;10.20;72.80;;;;;;6128047;22;92465;-70
2022/02/17 04:57:19;;;;;;;17.90;4.00;;;10.20;73.20;;;;;;6103247;22;95609;-70
2022/02/17 04:59:46;;;;;;;15.75;3.55;;;10.10;73.50;;;;;;6127993;22;95212;-70
2022/02/17 05:02:14;;;;;;;16.52;3.25;;;10.10;73.20;;;;;;6124629;22;92407;-70
2022/02/17 05:04:50;;;;;;;12.02;3.00;;;10.10;72.80;;;;;;6128133;22;92422;-70
2022/02/17 05:07:22;;;;;;;16.33;3.65;;;10.10;73.70;;;;;;6102781;22;97706;-70
2022/02/17 05:09:49;;;;;;;10.05;3.70;;;10.00;74.00;;;;;;6127197;22;97564;-70
2022/02/17 05:12:19;;;;;;;17.13;3.35;;;9.90;73.30;;;;;;6104460;22;92510;-70
2022/02/17 05:14:48;;;;;;;22.05;3.63;;;9.90;73.70;;;;;;6127764;22;92723;-70
2022/02/17 05:17:18;;;;;;;9.25;2.92;;;9.90;73.70;;;;;;6127552;22;94994;-70
2022/02/17 05:19:45;;;;;;;17.40;3.92;;;9.90;74.20;;;;;;6127253;22;95213;-70
2022/02/17 05:22:22;;;;;;;13.88;3.03;;;9.90;74.20;;;;;;6105116;22;92481;-70
2022/02/17 05:25:09;;;;;;;15.52;3.17;;;9.90;74.60;;;;;;6134447;22;91697;-70
2022/02/17 05:27:46;;;;;;;15.10;4.07;;;9.90;75.20;;;;;;6129064;22;95674;-70
2022/02/17 05:30:40;;;;;;;13.55;3.17;;;9.90;75.00;;;;;;6154875;22;93483;-70
2022/02/17 05:33:26;;;;;;;12.52;3.10;;;9.90;74.90;;;;;;6132394;22;94750;-70
2022/02/17 05:36:15;;;;;;;21.77;3.08;;;9.90;75.40;;;;;;6155394;22;92419;-70
2022/02/17 05:39:04;;;;;;;15.10;3.10;;;10.00;75.70;;;;;;6139065;22;92972;-70
2022/02/17 05:41:49;;;;;;;13.82;2.63;;;10.00;75.00;;;;;;6133188;22;93026;-69
2022/02/17 05:44:16;;;;;;;13.18;2.72;;;10.00;75.00;;;;;;6156316;22;92287;-70
2022/02/17 05:46:43;;;;;;;19.10;3.47;;;10.00;75.10;;;;;;6128835;22;92411;-70
2022/02/17 05:49:10;;;;;;;20.63;4.57;;;10.00;75.20;;;;;;6129353;22;92485;-70
2022/02/17 05:51:37;;;;;;;14.32;2.97;;;10.00;74.80;;;;;;6104352;22;95722;-70
2022/02/17 05:54:04;;;;;;;14.55;3.60;;;10.00;74.90;;;;;;6129054;22;92382;-70
2022/02/17 05:56:31;;;;;;;11.73;3.45;;;10.10;75.00;;;;;;6079823;22;98823;-70
2022/02/17 05:58:59;;;;;;;16.27;3.00;;;10.10;74.30;;;;;;6126942;22;98264;-70
2022/02/17 06:01:26;;;;;;;15.70;3.22;;;10.10;74.90;;;;;;6155087;22;95321;-70
2022/02/17 06:03:54;;;;;;;16.75;3.35;;;10.10;74.10;;;;;;6129704;22;92358;-70
2022/02/17 06:06:21;;;;;;;13.20;2.85;;;10.10;74.70;;;;;;6129239;22;92554;-70
2022/02/17 06:08:48;;;;;;;16.15;3.00;;;10.00;74.70;;;;;;6103934;22;95874;-70
2022/02/17 06:11:15;;;;;;;15.48;4.00;;;10.10;74.50;;;;;;6155568;22;92936;-70
2022/02/17 06:13:41;;;;;;;14.52;3.67;;;10.00;74.10;;;;;;6128777;22;92393;-71
2022/02/17 06:16:08;;;;;;;14.95;3.22;;;10.00;74.90;;;;;;6104810;22;91711;-70
2022/02/17 06:18:35;;;;;;;15.57;3.08;;;10.10;74.80;;;;;;6155443;22;93134;-70
2022/02/17 06:21:02;;;;;;;13.82;3.03;;;10.10;74.40;;;;;;6104096;22;96146;-70
2022/02/17 06:23:30;;;;;;;17.90;3.20;;;10.00;74.40;;;;;;6103035;22;94915;-70
2022/02/17 06:25:57;;;;;;;20.83;3.42;;;10.10;74.60;;;;;;6128633;22;92490;-70
2022/02/17 06:28:24;;;;;;;15.15;3.03;;;10.10;74.40;;;;;;6129230;22;95857;-70
2022/02/17 06:30:51;;;;;;;11.57;2.38;;;10.00;74.80;;;;;;6128712;22;95412;-70
2022/02/17 06:33:18;;;;;;;14.85;3.40;;;9.90;74.20;;;;;;6129616;22;92464;-70
2022/02/17 06:35:45;;;;;;;13.82;3.70;;;10.00;73.90;;;;;;6128116;22;92490;-70
2022/02/17 06:38:12;;;;;;;15.75;3.28;;;9.90;73.80;;;;;;6128537;22;95741;-70
2022/02/17 06:40:40;;;;;;;19.40;3.67;;;10.00;73.90;;;;;;6156140;22;91980;-70
2022/02/17 06:43:09;;;;;;;17.85;3.42;;;10.00;74.10;;;;;;6155283;22;96051;-70
2022/02/17 06:45:38;;;;;;;18.88;3.20;;;9.90;73.70;;;;;;6128844;22;93054;-70
2022/02/17 06:48:06;;;;;;;12.07;2.90;;;10.00;74.00;;;;;;6126724;22;98218;-70
2022/02/17 06:50:34;;;;;;;14.57;3.25;;;9.90;73.30;;;;;;6155522;22;95195;-70
2022/02/17 06:53:04;;;;;;;14.50;2.97;;;9.90;73.80;;;;;;6155587;22;92306;-70
2022/02/17 06:55:31;;;;;;;14.65;2.97;;;9.90;73.70;;;;;;6128881;22;92362;-70
2022/02/17 06:58:01;;;;;;;20.05;3.28;;;10.00;73.70;;;;;;6155225;22;93249;-70
2022/02/17 07:00:28;;;;;;;9.88;2.38;;;10.00;74.40;;;;;;6128359;22;95644;-70
2022/02/17 07:02:56;;;;;;;16.38;3.25;;;10.00;74.30;;;;;;6128731;22;92347;-70
2022/02/17 07:05:26;;;;;;;15.77;2.97;;;10.00;74.10;;;;;;6129931;22;92535;-70
2022/02/17 07:07:53;;;;;;;16.13;3.75;;;10.00;74.40;;;;;;6129034;22;93192;-70
2022/02/17 07:13:06;;;;;;;14.25;2.95;;;10.00;73.90;;;;;;6127360;22;94796;-70
2022/02/17 07:15:35;;;;;;;15.05;3.33;;;9.90;74.30;;;;;;6155523;22;92424;-70
2022/02/17 07:18:08;;;;;;;18.77;3.42;;;9.90;73.80;;;;;;6127946;22;103936;-70
2022/02/17 07:20:39;;;;;;;12.25;2.67;;;9.90;73.80;;;;;;6129060;22;92872;-70
2022/02/17 07:23:09;;;;;;;;;;;10.00;74.40;;;;;;6105876;22;92437;-70
2022/02/17 07:25:36;;;;;;;10.50;2.78;;;9.90;73.90;;;;;;6157127;22;92412;-70
2022/02/17 07:28:03;;;;;;;16.20;3.05;;;9.90;73.60;;;;;;6128199;22;95622;-70
2022/02/17 07:30:30;;;;;;;10.10;2.97;;;9.90;72.60;;;;;;6155811;22;92935;-70
2022/02/17 07:32:57;;;;;;;12.45;2.45;;;9.90;72.10;;;;;;6128774;22;92773;-70
2022/02/17 07:35:29;;;;;;;15.68;3.20;;;10.00;72.10;;;;;;6155604;22;92305;-70
2022/02/17 07:37:56;;;;;;;15.48;3.35;;;10.00;72.20;;;;;;6127070;22;95569;-70
2022/02/17 07:40:24;;;;;;;12.20;2.92;;;10.00;71.80;;;;;;6155309;22;95349;-70
2022/02/17 07:42:51;;;;;;;13.60;3.63;;;10.10;73.00;;;;;;6128345;22;92410;-71
2022/02/17 07:45:21;;;;;;;21.70;3.50;;;10.10;73.30;;;;;;6128191;22;92462;-70
2022/02/17 07:47:49;;;;;;;15.57;2.72;;;10.10;74.10;;;;;;6129156;22;93183;-70
2022/02/17 07:50:19;;;;;;;19.88;3.30;;;10.10;74.30;;;;;;6155120;22;92986;-70
2022/02/17 07:52:47;;;;;;;14.68;2.83;;;10.00;74.10;;;;;;6129221;22;92806;-70
2022/02/17 07:55:15;;;;;;;15.75;2.83;;;10.00;73.50;;;;;;6155586;22;91717;-70
2022/02/17 07:57:42;;;;;;;15.82;3.38;;;10.00;72.90;;;;;;6128387;22;95770;-70
2022/02/17 08:00:11;;;;;;;11.68;3.03;;;10.00;72.90;;;;;;6128585;22;92985;-70
2022/02/17 08:02:42;;;;;;;16.70;2.85;;;10.10;73.30;;;;;;6153798;22;94900;-71
2022/02/17 08:05:10;;;;;;;15.13;4.20;;;10.10;72.40;;;;;;6128831;22;92435;-70
2022/02/17 08:07:38;;;;;;;15.60;2.53;;;10.10;72.40;;;;;;6128985;22;93098;-70
2022/02/17 08:10:06;;;;;;;17.63;4.00;;;10.00;72.10;;;;;;6154775;22;92856;-71
2022/02/17 08:12:39;;;;;;;11.25;2.83;;;10.00;71.90;;;;;;6103922;22;92715;-70
2022/02/17 08:15:07;;;;;;;16.33;3.35;;;10.00;72.60;;;;;;6128659;22;92450;-70
2022/02/17 08:17:34;;;;;;;19.38;3.15;;;10.00;72.20;;;;;;6154971;22;93292;-70
2022/02/17 08:20:00;;;;;;;15.93;2.95;;;10.00;72.90;;;;;;6128437;22;95588;-70
2022/02/17 08:22:27;;;;;;;16.98;3.03;;;10.00;72.60;;;;;;6128513;22;93158;-70
2022/02/17 08:24:54;;;;;;;14.48;2.85;;;10.00;73.10;;;;;;6127878;22;101492;-70
2022/02/17 08:27:21;;;;;;;17.05;2.97;;;10.00;72.40;;;;;;6153350;22;95762;-70
2022/02/17 08:29:50;;;;;;;13.98;3.97;;;10.00;72.00;;;;;;6104524;22;95250;-70
2022/02/17 08:32:17;;;;;;;18.52;3.40;;;10.00;71.90;;;;;;6128479;22;92424;-70
2022/02/17 08:34:44;;;;;;;12.85;2.97;;;9.90;72.80;;;;;;6155176;22;92392;-70
2022/02/17 08:37:11;;;;;;;12.18;2.90;;;9.90;71.90;;;;;;6128242;22;93098;-70
2022/02/17 08:39:38;;;;;;;15.45;2.97;;;10.00;72.20;;;;;;6154978;22;92933;-70
2022/02/17 08:42:06;;;;;;;17.05;2.97;;;9.90;71.80;;;;;;6154706;22;92333;-70
2022/02/17 08:44:33;;;;;;;11.98;2.47;;;10.00;72.30;;;;;;6104120;22;91715;-71
2022/02/17 08:47:01;;;;;;;16.77;3.35;;;10.00;72.20;;;;;;6154580;22;93222;-70
2022/02/17 08:49:27;;;;;;;14.88;3.03;;;10.00;72.00;;;;;;6154604;22;92884;-70
2022/02/17 08:51:54;;;;;;;11.90;2.63;;;9.90;72.10;;;;;;6102189;22;94793;-70
2022/02/17 08:54:21;;;;;;;16.60;2.97;;;10.00;72.10;;;;;;6154980;22;92309;-70
2022/02/17 08:56:48;;;;;;;13.45;2.58;;;9.90;72.60;;;;;;6154490;22;95630;-70
2022/02/17 08:59:18;;;;;;;12.63;3.70;;;10.00;72.90;;;;;;6155542;22;93104;-70
2022/02/17 09:01:45;;;;;;;22.58;3.40;;;10.00;73.30;;;;;;6155818;22;92476;-70
2022/02/17 09:04:12;;;;;;;18.85;3.10;;;10.00;73.50;;;;;;6155884;22;92381;-70
2022/02/17 09:06:39;;;;;;;15.30;3.17;;;9.90;73.10;;;;;;6129366;22;94389;-70
2022/02/17 09:09:06;;;;;;;14.27;2.80;;;10.00;73.30;;;;;;6105307;22;92890;-70
2022/02/17 09:11:33;;;;;;;15.75;3.00;;;10.00;73.10;;;;;;6129329;22;92427;-71
2022/02/17 09:14:00;;;;;;;9.40;2.85;;;10.10;72.70;;;;;;6129491;22;92468;-71
2022/02/17 09:16:27;;;;;;;12.30;2.97;;;10.00;73.30;;;;;;6127709;22;98313;-71
2022/02/17 09:18:54;;;;;;;13.35;2.55;;;10.10;74.00;;;;;;6129463;22;95343;-71
2022/02/17 09:21:21;;;;;;;13.57;3.13;;;10.10;73.60;;;;;;6155890;22;92405;-71
2022/02/17 09:23:48;;;;;;;16.50;3.38;;;10.10;73.00;;;;;;6129334;22;92442;-71
2022/02/17 09:26:16;;;;;;;14.27;2.70;;;10.10;73.10;;;;;;6128055;22;118909;-70
2022/02/17 09:28:43;;;;;;;13.52;3.10;;;10.10;72.90;;;;;;6155894;22;92897;-71
2022/02/17 09:31:29;;;;;;;11.25;2.30;;;10.00;72.30;;;;;;6108710;22;92493;-71
2022/02/17 09:33:56;;;;;;;13.90;2.85;;;10.10;72.90;;;;;;6130311;22;91737;-71
2022/02/17 09:36:27;;;;;;;12.05;2.83;;;10.10;73.00;;;;;;6104147;22;95689;-71
2022/02/17 09:38:55;;;;;;;18.35;3.88;;;10.10;72.60;;;;;;6129524;22;92839;-70
2022/02/17 09:41:23;;;;;;;17.50;3.40;;;10.20;72.50;;;;;;6128135;22;94802;-71
2022/02/17 09:43:51;;;;;;;16.25;3.15;;;10.20;72.40;;;;;;6156133;22;92384;-71
2022/02/17 09:46:21;;;;;;;16.27;3.53;;;10.20;71.70;;;;;;6129307;22;93122;-71
2022/02/17 09:49:00;;;;;;;15.43;3.47;;;10.20;71.50;;;;;;6128860;22;95764;-71
2022/02/17 09:51:33;;;;;;;17.67;3.83;;;10.20;71.40;;;;;;6129557;22;92437;-71
2022/02/17 09:54:00;;;;;;;15.85;3.20;;;10.30;70.80;;;;;;6156323;22;92315;-71
2022/02/17 09:56:27;;;;;;;11.07;3.13;;;10.30;72.10;;;;;;6155493;22;93177;-71
2022/02/17 09:58:55;;;;;;;14.20;2.90;;;10.40;71.50;;;;;;6156216;22;92923;-71
2022/02/17 10:01:27;;;;;;;9.90;2.30;;;10.50;70.40;;;;;;6104545;22;92496;-71
2022/02/17 10:04:17;;;;;;;14.88;2.92;;;10.50;71.50;;;;;;6129776;22;92438;-71
2022/02/17 10:06:46;;;;;;;18.08;3.13;;;10.60;70.00;;;;;;6153783;22;95586;-71
2022/02/17 10:09:15;;;;;;;16.70;3.10;;;10.60;70.60;;;;;;6128383;22;97758;-71
2022/02/17 10:11:44;;;;;;;10.32;2.58;;;10.60;70.00;;;;;;6129396;22;92523;-71
2022/02/17 10:14:16;;;;;;;14.88;3.03;;;10.60;70.50;;;;;;6155706;22;92363;-71
2022/02/17 10:16:57;;;;;;;13.23;3.13;;;10.60;70.70;;;;;;6155651;22;92456;-71
2022/02/17 10:19:29;;;;;;;13.10;2.72;;;10.60;70.10;;;;;;6155365;22;92830;-71
2022/02/17 10:22:03;;;;;;;12.73;2.58;;;10.50;70.00;;;;;;6129275;22;92335;-70
2022/02/17 10:24:33;;;;;;;13.73;3.05;;;10.50;69.40;;;;;;6129480;22;91641;-71
2022/02/17 10:27:03;;;;;;;13.43;2.65;;;10.40;68.80;;;;;;6128527;22;96301;-71
2022/02/17 10:29:34;;;;;;;15.45;2.83;;;10.50;68.90;;;;;;6155508;22;94048;-71
2022/02/17 10:32:12;;;;;;;11.68;2.50;;;10.50;69.50;;;;;;6154214;22;94765;-71
2022/02/17 10:34:41;;;;;;;15.68;2.88;;;10.70;69.70;;;;;;6155756;22;92369;-71
2022/02/17 10:37:10;;;;;;;13.80;2.90;;;10.70;69.10;;;;;;6129523;22;92489;-71
2022/02/17 10:39:42;;;;;;;9.93;2.70;;;10.80;69.50;;;;;;6128658;22;93993;-71
2022/02/17 10:42:13;;;;;;;17.52;4.35;;;10.80;69.70;;;;;;6129255;22;92511;-71
2022/02/17 10:44:45;;;;;;;17.73;3.20;;;10.90;69.00;;;;;;6129883;22;92370;-71
2022/02/17 10:47:13;;;;;;;11.30;2.90;;;10.90;68.80;;;;;;6155481;22;93180;-71
2022/02/17 10:49:52;;;;;;;17.88;3.70;;;10.90;68.20;;;;;;6155964;22;92876;-71
2022/02/17 10:52:29;;;;;;;13.95;2.75;;;11.00;68.20;;;;;;6128672;22;92371;-71
2022/02/17 10:55:13;;;;;;;12.10;2.95;;;11.00;68.20;;;;;;6155972;22;92402;-71
2022/02/17 10:57:41;;;;;;;10.85;2.45;;;11.20;68.30;;;;;;6153684;22;95614;-71
2022/02/17 11:00:18;;;;;;;12.07;2.53;;;11.30;67.40;;;;;;6129066;22;95183;-71
2022/02/17 11:02:47;;;;;;;10.00;2.97;;;11.40;67.20;;;;;;6129310;22;92445;-71
2022/02/17 11:05:15;;;;;;;9.63;2.78;;;11.40;66.60;;;;;;6128833;22;92547;-71
2022/02/17 11:07:45;;;;;;;14.13;2.47;;;11.50;66.20;;;;;;6155589;22;93185;-71
2022/02/17 11:10:13;;;;;;;9.95;2.58;;;11.50;66.30;;;;;;6128181;22;95557;-71
2022/02/17 11:12:41;;;;;;;12.05;2.58;;;11.60;66.80;;;;;;6154998;22;100475;-71
2022/02/17 11:15:09;;;;;;;11.13;2.53;;;11.60;66.00;;;;;;6105091;22;91800;-71
2022/02/17 11:17:39;;;;;;;12.10;2.92;;;11.70;66.00;;;;;;6128154;22;95989;-71
2022/02/17 11:20:17;;;;;;;11.80;2.88;;;11.80;66.00;;;;;;6154985;22;92976;-71
2022/02/17 11:22:47;;;;;;;11.85;2.55;;;11.80;65.70;;;;;;6127733;22;94916;-71
2022/02/17 11:25:18;;;;;;;11.43;2.20;;;11.80;65.40;;;;;;6155261;22;92380;-71
2022/02/17 11:27:59;;;;;;;11.55;2.45;;;11.80;65.00;;;;;;6128222;22;94469;-71
2022/02/17 11:30:36;;;;;;;12.02;2.78;;;12.00;65.70;;;;;;6155676;22;92951;-71
2022/02/17 11:33:32;;;;;;;8.52;2.30;;;11.90;65.10;;;;;;6155732;22;92356;-71
2022/02/17 11:36:25;;;;;;;13.82;3.00;;;12.00;63.60;;;;;;6128710;22;92517;-71
2022/02/17 11:38:57;;;;;;;11.10;2.53;;;12.00;63.40;;;;;;6155362;22;93260;-71
2022/02/17 11:41:28;;;;;;;9.70;2.30;;;12.00;63.70;;;;;;6130228;22;92870;-78
2022/02/17 11:44:13;;;;;;;14.70;2.75;;;12.00;64.10;;;;;;6129512;22;92447;-78
2022/02/17 11:46:40;;;;;;;7.78;2.03;;;12.00;63.60;;;;;;6128548;22;92452;-78
2022/02/17 11:49:10;;;;;;;12.68;3.05;;;12.00;63.20;;;;;;6153215;22;95573;-78
2022/02/17 11:51:37;;;;;;;13.40;2.45;;;12.10;63.00;;;;;;6127833;22;98048;-78
2022/02/17 11:54:16;;;;;;;12.05;2.10;;;12.10;63.10;;;;;;6155445;22;92418;-78
2022/02/17 11:56:50;;;;;;;10.00;2.13;;;12.00;64.00;;;;;;6128920;22;92314;-77
2022/02/17 11:59:28;;;;;;;11.93;2.58;;;12.10;63.80;;;;;;6125455;22;94581;-77
2022/02/17 12:01:58;;;;;;;6.88;1.60;;;12.10;62.90;;;;;;6143552;22;94052;-78
2022/02/17 12:04:44;;;;;;;10.25;2.20;;;12.00;62.10;;;;;;6133331;22;92451;-78
2022/02/17 12:07:30;;;;;;;9.25;2.58;;;12.00;62.30;;;;;;6156198;22;91936;-78
2022/02/17 12:09:57;;;;;;;9.65;2.20;;;12.00;62.70;;;;;;6155147;22;92798;-78
2022/02/17 12:12:27;;;;;;;9.70;2.28;;;12.00;62.10;;;;;;6154855;22;92905;-78
2022/02/17 12:14:58;;;;;;;12.20;2.00;;;12.00;62.30;;;;;;6151998;22;94831;-78
2022/02/17 12:17:35;;;;;;;9.27;2.13;;;12.00;62.80;;;;;;6153369;22;92405;-77
2022/02/17 12:20:03;;;;;;;10.02;2.60;;;12.10;62.00;;;;;;6153585;22;92997;-78
2022/02/17 12:22:30;;;;;;;9.20;2.65;;;12.00;61.50;;;;;;6154910;22;92789;-78
2022/02/17 12:25:13;;;;;;;10.32;2.45;;;11.80;62.20;;;;;;6155213;22;92320;-78
2022/02/17 12:27:41;;;;;;;9.35;2.08;;;11.90;62.40;;;;;;6154875;22;92384;-78
2022/02/17 12:30:09;;;;;;;9.45;2.25;;;11.80;62.10;;;;;;6153114;22;94413;-78
2022/02/17 12:32:36;;;;;;;8.55;1.98;;;11.80;62.50;;;;;;6155165;22;93143;-77
2022/02/17 12:35:04;;;;;;;10.20;2.42;;;12.00;63.20;;;;;;6130066;22;92535;-78
2022/02/17 12:37:31;;;;;;;9.10;2.58;;;12.00;63.10;;;;;;6156069;22;92405;-78
2022/02/17 12:39:58;;;;;;;11.15;2.65;;;12.10;62.80;;;;;;6154503;22;95539;-78
2022/02/17 12:42:40;;;;;;;9.75;1.77;;;12.10;62.50;;;;;;6155557;22;105360;-78
2022/02/17 12:45:08;;;;;;;8.65;1.98;;;12.10;62.10;;;;;;6156681;22;92306;-71
2022/02/17 12:47:35;;;;;;;13.25;2.50;;;12.10;62.20;;;;;;6155965;22;92436;-71
2022/02/17 12:50:06;;;;;;;12.02;2.78;;;12.20;63.00;;;;;;6154430;22;96365;-71
2022/02/17 12:52:32;;;;;;;9.32;2.00;;;12.20;62.80;;;;;;6155510;22;92876;-71
2022/02/17 12:55:07;;;;;;;12.15;3.00;;;12.20;62.50;;;;;;6154504;22;93520;-71